sensor_id;sensor_type;location;lat;lon;timestamp;P1;durP1;ratioP1;P2;durP2;ratioP2
21927;SDS011;11128;51.096;17.190;2023-03-23T00:00:39;48.50;;;20.13;;
21927;SDS011;11128;51.096;17.190;2023-03-23T00:05:44;46.80;;;19.83;;
21927;SDS011;11128;51.096;17.190;2023-03-23T00:10:50;42.67;;;18.75;;
21927;SDS011;11128;51.096;17.190;2023-03-23T00:15:58;35.05;;;16.63;;
21927;SDS011;11128;51.096;17.190;2023-03-23T00:21:02;42.42;;;17.95;;
21927;SDS011;11128;51.096;17.190;2023-03-23T00:26:05;38.33;;;19.77;;
21927;SDS011;11128;51.096;17.190;2023-03-23T00:31:08;46.28;;;22.55;;
21927;SDS011;11128;51.096;17.190;2023-03-23T00:36:10;36.05;;;18.92;;
21927;SDS011;11128;51.096;17.190;2023-03-23T00:41:12;37.40;;;18.88;;
21927;SDS011;11128;51.096;17.190;2023-03-23T00:46:15;33.15;;;16.13;;
21927;SDS011;11128;51.096;17.190;2023-03-23T00:51:17;31.20;;;15.98;;
21927;SDS011;11128;51.096;17.190;2023-03-23T00:56:19;32.67;;;15.75;;
21927;SDS011;11128;51.096;17.190;2023-03-23T01:01:21;29.35;;;15.20;;
21927;SDS011;11128;51.096;17.190;2023-03-23T01:06:22;24.60;;;13.70;;
21927;SDS011;11128;51.096;17.190;2023-03-23T01:11:23;24.38;;;14.27;;
21927;SDS011;11128;51.096;17.190;2023-03-23T01:16:25;28.45;;;14.68;;
21927;SDS011;11128;51.096;17.190;2023-03-23T01:21:28;32.10;;;16.90;;
21927;SDS011;11128;51.096;17.190;2023-03-23T01:26:29;31.05;;;15.25;;
21927;SDS011;11128;51.096;17.190;2023-03-23T01:31:31;30.50;;;15.38;;
21927;SDS011;11128;51.096;17.190;2023-03-23T01:36:32;32.17;;;16.50;;
21927;SDS011;11128;51.096;17.190;2023-03-23T01:41:34;30.85;;;16.67;;
21927;SDS011;11128;51.096;17.190;2023-03-23T01:46:36;37.13;;;16.80;;
21927;SDS011;11128;51.096;17.190;2023-03-23T01:51:39;39.33;;;17.50;;
21927;SDS011;11128;51.096;17.190;2023-03-23T01:56:48;28.65;;;15.80;;
21927;SDS011;11128;51.096;17.190;2023-03-23T02:01:55;31.30;;;14.07;;
21927;SDS011;11128;51.096;17.190;2023-03-23T02:06:57;28.15;;;13.60;;
21927;SDS011;11128;51.096;17.190;2023-03-23T02:11:58;31.10;;;14.40;;
21927;SDS011;11128;51.096;17.190;2023-03-23T02:17:04;24.88;;;11.98;;
21927;SDS011;11128;51.096;17.190;2023-03-23T02:27:57;22.05;;;10.43;;
21927;SDS011;11128;51.096;17.190;2023-03-23T02:38:33;23.80;;;10.25;;
21927;SDS011;11128;51.096;17.190;2023-03-23T02:43:42;18.42;;;9.45;;
21927;SDS011;11128;51.096;17.190;2023-03-23T02:48:46;19.30;;;10.15;;
21927;SDS011;11128;51.096;17.190;2023-03-23T02:53:51;18.10;;;9.55;;
21927;SDS011;11128;51.096;17.190;2023-03-23T02:58:55;15.95;;;8.25;;
21927;SDS011;11128;51.096;17.190;2023-03-23T03:03:57;14.90;;;8.57;;
21927;SDS011;11128;51.096;17.190;2023-03-23T03:09:02;18.90;;;8.45;;
21927;SDS011;11128;51.096;17.190;2023-03-23T03:14:33;15.07;;;8.98;;
21927;SDS011;11128;51.096;17.190;2023-03-23T03:19:46;21.13;;;10.50;;
21927;SDS011;11128;51.096;17.190;2023-03-23T03:24:52;24.95;;;15.70;;
21927;SDS011;11128;51.096;17.190;2023-03-23T03:29:58;32.88;;;18.25;;
21927;SDS011;11128;51.096;17.190;2023-03-23T03:35:02;30.00;;;18.92;;
21927;SDS011;11128;51.096;17.190;2023-03-23T03:40:05;25.60;;;16.55;;
21927;SDS011;11128;51.096;17.190;2023-03-23T03:45:14;26.27;;;13.85;;
21927;SDS011;11128;51.096;17.190;2023-03-23T03:50:18;19.60;;;11.27;;
21927;SDS011;11128;51.096;17.190;2023-03-23T03:55:19;14.70;;;9.20;;
21927;SDS011;11128;51.096;17.190;2023-03-23T04:00:21;16.92;;;8.82;;
21927;SDS011;11128;51.096;17.190;2023-03-23T04:05:23;15.43;;;8.25;;
21927;SDS011;11128;51.096;17.190;2023-03-23T04:10:24;14.23;;;6.97;;
21927;SDS011;11128;51.096;17.190;2023-03-23T04:15:27;12.88;;;6.72;;
21927;SDS011;11128;51.096;17.190;2023-03-23T04:20:28;9.50;;;5.90;;
21927;SDS011;11128;51.096;17.190;2023-03-23T04:25:29;10.68;;;6.00;;
21927;SDS011;11128;51.096;17.190;2023-03-23T04:30:33;10.02;;;5.43;;
21927;SDS011;11128;51.096;17.190;2023-03-23T04:35:34;9.05;;;5.40;;
21927;SDS011;11128;51.096;17.190;2023-03-23T04:40:36;9.00;;;5.40;;
21927;SDS011;11128;51.096;17.190;2023-03-23T04:45:39;9.80;;;5.55;;
21927;SDS011;11128;51.096;17.190;2023-03-23T04:50:42;10.73;;;5.32;;
21927;SDS011;11128;51.096;17.190;2023-03-23T04:55:44;9.13;;;4.88;;
21927;SDS011;11128;51.096;17.190;2023-03-23T05:00:48;8.75;;;4.63;;
21927;SDS011;11128;51.096;17.190;2023-03-23T05:05:51;6.10;;;4.25;;
21927;SDS011;11128;51.096;17.190;2023-03-23T05:10:53;11.27;;;5.18;;
21927;SDS011;11128;51.096;17.190;2023-03-23T05:16:02;7.22;;;4.88;;
21927;SDS011;11128;51.096;17.190;2023-03-23T05:21:05;8.68;;;4.90;;
21927;SDS011;11128;51.096;17.190;2023-03-23T05:26:06;8.32;;;4.80;;
21927;SDS011;11128;51.096;17.190;2023-03-23T05:31:08;10.18;;;4.95;;
21927;SDS011;11128;51.096;17.190;2023-03-23T05:36:10;10.15;;;4.53;;
21927;SDS011;11128;51.096;17.190;2023-03-23T05:41:14;12.13;;;4.93;;
21927;SDS011;11128;51.096;17.190;2023-03-23T05:46:15;8.50;;;4.03;;
21927;SDS011;11128;51.096;17.190;2023-03-23T05:51:17;7.22;;;4.18;;
21927;SDS011;11128;51.096;17.190;2023-03-23T05:56:19;7.57;;;4.18;;
21927;SDS011;11128;51.096;17.190;2023-03-23T06:01:20;11.70;;;4.68;;
21927;SDS011;11128;51.096;17.190;2023-03-23T06:06:22;8.18;;;3.78;;
21927;SDS011;11128;51.096;17.190;2023-03-23T06:11:26;8.52;;;3.45;;
21927;SDS011;11128;51.096;17.190;2023-03-23T06:16:27;6.72;;;3.03;;
21927;SDS011;11128;51.096;17.190;2023-03-23T06:21:31;9.95;;;3.60;;
21927;SDS011;11128;51.096;17.190;2023-03-23T06:26:34;7.00;;;3.45;;
21927;SDS011;11128;51.096;17.190;2023-03-23T06:31:39;6.47;;;3.30;;
21927;SDS011;11128;51.096;17.190;2023-03-23T06:36:43;5.97;;;3.13;;
21927;SDS011;11128;51.096;17.190;2023-03-23T06:41:45;5.95;;;3.42;;
21927;SDS011;11128;51.096;17.190;2023-03-23T06:46:47;6.80;;;2.85;;
21927;SDS011;11128;51.096;17.190;2023-03-23T06:51:51;6.70;;;3.40;;
21927;SDS011;11128;51.096;17.190;2023-03-23T06:56:53;8.18;;;3.00;;
21927;SDS011;11128;51.096;17.190;2023-03-23T07:01:55;5.47;;;3.25;;
21927;SDS011;11128;51.096;17.190;2023-03-23T07:06:58;7.22;;;3.08;;
21927;SDS011;11128;51.096;17.190;2023-03-23T07:12:05;7.43;;;3.08;;
21927;SDS011;11128;51.096;17.190;2023-03-23T07:17:07;7.72;;;3.08;;
21927;SDS011;11128;51.096;17.190;2023-03-23T07:22:09;6.18;;;2.90;;
21927;SDS011;11128;51.096;17.190;2023-03-23T07:27:10;4.82;;;3.22;;
21927;SDS011;11128;51.096;17.190;2023-03-23T07:32:14;8.68;;;3.72;;
21927;SDS011;11128;51.096;17.190;2023-03-23T07:37:15;4.55;;;2.92;;
21927;SDS011;11128;51.096;17.190;2023-03-23T07:42:17;6.50;;;3.60;;
21927;SDS011;11128;51.096;17.190;2023-03-23T07:47:19;8.90;;;3.88;;
21927;SDS011;11128;51.096;17.190;2023-03-23T07:52:20;12.07;;;4.75;;
21927;SDS011;11128;51.096;17.190;2023-03-23T07:57:23;9.20;;;4.40;;
21927;SDS011;11128;51.096;17.190;2023-03-23T08:02:26;9.25;;;3.83;;
21927;SDS011;11128;51.096;17.190;2023-03-23T08:07:28;7.05;;;4.22;;
21927;SDS011;11128;51.096;17.190;2023-03-23T08:12:30;10.63;;;4.05;;
21927;SDS011;11128;51.096;17.190;2023-03-23T08:17:32;7.53;;;4.03;;
21927;SDS011;11128;51.096;17.190;2023-03-23T08:22:39;8.40;;;4.10;;
21927;SDS011;11128;51.096;17.190;2023-03-23T08:27:41;6.22;;;3.90;;
21927;SDS011;11128;51.096;17.190;2023-03-23T08:32:44;6.22;;;4.22;;
21927;SDS011;11128;51.096;17.190;2023-03-23T08:37:46;8.60;;;3.42;;
21927;SDS011;11128;51.096;17.190;2023-03-23T08:42:51;5.18;;;3.10;;
21927;SDS011;11128;51.096;17.190;2023-03-23T08:47:53;6.63;;;3.60;;
21927;SDS011;11128;51.096;17.190;2023-03-23T08:52:56;5.78;;;3.47;;
21927;SDS011;11128;51.096;17.190;2023-03-23T08:57:58;5.93;;;3.33;;
21927;SDS011;11128;51.096;17.190;2023-03-23T09:03:01;8.48;;;3.47;;
21927;SDS011;11128;51.096;17.190;2023-03-23T09:08:03;6.07;;;3.03;;
21927;SDS011;11128;51.096;17.190;2023-03-23T09:13:04;5.00;;;2.67;;
21927;SDS011;11128;51.096;17.190;2023-03-23T09:18:06;3.65;;;2.05;;
21927;SDS011;11128;51.096;17.190;2023-03-23T09:23:08;3.03;;;1.65;;
21927;SDS011;11128;51.096;17.190;2023-03-23T09:28:10;2.17;;;1.60;;
21927;SDS011;11128;51.096;17.190;2023-03-23T09:33:11;4.75;;;1.95;;
21927;SDS011;11128;51.096;17.190;2023-03-23T09:38:13;2.10;;;1.63;;
21927;SDS011;11128;51.096;17.190;2023-03-23T09:53:56;2.40;;;1.63;;
21927;SDS011;11128;51.096;17.190;2023-03-23T10:04:15;3.92;;;1.80;;
21927;SDS011;11128;51.096;17.190;2023-03-23T10:09:40;2.83;;;1.92;;
21927;SDS011;11128;51.096;17.190;2023-03-23T10:20:09;3.70;;;1.45;;
21927;SDS011;11128;51.096;17.190;2023-03-23T10:25:19;1.63;;;1.30;;
21927;SDS011;11128;51.096;17.190;2023-03-23T10:30:25;1.92;;;1.30;;
21927;SDS011;11128;51.096;17.190;2023-03-23T10:40:59;2.58;;;1.10;;
21927;SDS011;11128;51.096;17.190;2023-03-23T10:46:11;2.55;;;1.00;;
21927;SDS011;11128;51.096;17.190;2023-03-23T10:51:37;2.00;;;0.93;;
21927;SDS011;11128;51.096;17.190;2023-03-23T10:56:43;1.17;;;0.80;;
21927;SDS011;11128;51.096;17.190;2023-03-23T11:01:47;1.17;;;0.82;;
21927;SDS011;11128;51.096;17.190;2023-03-23T11:06:53;1.40;;;0.80;;
21927;SDS011;11128;51.096;17.190;2023-03-23T11:11:59;1.75;;;0.90;;
21927;SDS011;11128;51.096;17.190;2023-03-23T11:17:02;5.43;;;1.40;;
21927;SDS011;11128;51.096;17.190;2023-03-23T11:22:09;1.48;;;1.10;;
21927;SDS011;11128;51.096;17.190;2023-03-23T11:27:17;3.55;;;1.00;;
21927;SDS011;11128;51.096;17.190;2023-03-23T11:32:24;1.92;;;1.00;;
21927;SDS011;11128;51.096;17.190;2023-03-23T11:58:39;1.03;;;0.90;;
21927;SDS011;11128;51.096;17.190;2023-03-23T12:03:52;2.90;;;1.00;;
21927;SDS011;11128;51.096;17.190;2023-03-23T12:09:27;3.55;;;0.98;;
21927;SDS011;11128;51.096;17.190;2023-03-23T12:14:58;2.42;;;1.00;;
21927;SDS011;11128;51.096;17.190;2023-03-23T12:31:03;2.28;;;1.25;;
21927;SDS011;11128;51.096;17.190;2023-03-23T12:36:16;5.03;;;0.85;;
21927;SDS011;11128;51.096;17.190;2023-03-23T12:46:40;2.40;;;1.20;;
21927;SDS011;11128;51.096;17.190;2023-03-23T12:52:08;4.18;;;1.08;;
21927;SDS011;11128;51.096;17.190;2023-03-23T13:08:15;5.03;;;1.38;;
21927;SDS011;11128;51.096;17.190;2023-03-23T13:13:24;1.92;;;1.00;;
21927;SDS011;11128;51.096;17.190;2023-03-23T13:23:57;1.75;;;1.30;;
21927;SDS011;11128;51.096;17.190;2023-03-23T13:29:20;3.15;;;1.20;;
21927;SDS011;11128;51.096;17.190;2023-03-23T13:39:34;2.50;;;1.25;;
21927;SDS011;11128;51.096;17.190;2023-03-23T13:55:07;3.33;;;1.52;;
21927;SDS011;11128;51.096;17.190;2023-03-23T14:06:33;5.43;;;1.42;;
21927;SDS011;11128;51.096;17.190;2023-03-23T14:11:19;4.30;;;1.67;;
21927;SDS011;11128;51.096;17.190;2023-03-23T14:16:35;4.82;;;1.63;;
21927;SDS011;11128;51.096;17.190;2023-03-23T14:21:41;3.78;;;1.80;;
21927;SDS011;11128;51.096;17.190;2023-03-23T14:27:01;3.20;;;1.60;;
21927;SDS011;11128;51.096;17.190;2023-03-23T14:32:19;3.35;;;1.77;;
21927;SDS011;11128;51.096;17.190;2023-03-23T14:37:26;2.22;;;1.60;;
21927;SDS011;11128;51.096;17.190;2023-03-23T14:42:29;2.78;;;1.48;;
21927;SDS011;11128;51.096;17.190;2023-03-23T14:47:44;3.35;;;1.40;;
21927;SDS011;11128;51.096;17.190;2023-03-23T14:52:52;8.60;;;1.95;;
21927;SDS011;11128;51.096;17.190;2023-03-23T14:57:53;2.78;;;1.80;;
21927;SDS011;11128;51.096;17.190;2023-03-23T15:02:54;2.50;;;1.98;;
21927;SDS011;11128;51.096;17.190;2023-03-23T15:08:06;3.70;;;2.13;;
21927;SDS011;11128;51.096;17.190;2023-03-23T15:13:11;3.10;;;1.83;;
21927;SDS011;11128;51.096;17.190;2023-03-23T15:18:25;3.53;;;1.85;;
21927;SDS011;11128;51.096;17.190;2023-03-23T15:23:54;3.92;;;1.80;;
21927;SDS011;11128;51.096;17.190;2023-03-23T15:39:32;4.53;;;2.20;;
21927;SDS011;11128;51.096;17.190;2023-03-23T15:44:41;2.83;;;1.80;;
21927;SDS011;11128;51.096;17.190;2023-03-23T15:49:43;3.08;;;1.58;;
21927;SDS011;11128;51.096;17.190;2023-03-23T15:54:46;5.10;;;1.80;;
21927;SDS011;11128;51.096;17.190;2023-03-23T15:59:48;3.22;;;1.70;;
21927;SDS011;11128;51.096;17.190;2023-03-23T16:04:49;4.45;;;1.30;;
21927;SDS011;11128;51.096;17.190;2023-03-23T16:09:51;3.13;;;1.65;;
21927;SDS011;11128;51.096;17.190;2023-03-23T16:14:53;5.18;;;1.60;;
21927;SDS011;11128;51.096;17.190;2023-03-23T16:19:54;1.58;;;1.42;;
21927;SDS011;11128;51.096;17.190;2023-03-23T16:24:55;3.17;;;1.92;;
21927;SDS011;11128;51.096;17.190;2023-03-23T16:29:58;5.07;;;2.03;;
21927;SDS011;11128;51.096;17.190;2023-03-23T16:35:03;3.28;;;1.90;;
21927;SDS011;11128;51.096;17.190;2023-03-23T16:40:05;2.72;;;1.85;;
21927;SDS011;11128;51.096;17.190;2023-03-23T16:45:08;2.92;;;1.70;;
21927;SDS011;11128;51.096;17.190;2023-03-23T16:50:11;6.82;;;2.20;;
21927;SDS011;11128;51.096;17.190;2023-03-23T16:55:15;4.97;;;2.05;;
21927;SDS011;11128;51.096;17.190;2023-03-23T17:00:17;4.45;;;2.50;;
21927;SDS011;11128;51.096;17.190;2023-03-23T17:05:20;7.57;;;2.28;;
21927;SDS011;11128;51.096;17.190;2023-03-23T17:10:23;4.50;;;2.30;;
21927;SDS011;11128;51.096;17.190;2023-03-23T17:15:26;6.00;;;2.65;;
21927;SDS011;11128;51.096;17.190;2023-03-23T17:20:29;7.53;;;3.20;;
21927;SDS011;11128;51.096;17.190;2023-03-23T17:25:31;8.18;;;3.60;;
21927;SDS011;11128;51.096;17.190;2023-03-23T17:30:32;4.57;;;2.55;;
21927;SDS011;11128;51.096;17.190;2023-03-23T17:35:34;5.53;;;2.92;;
21927;SDS011;11128;51.096;17.190;2023-03-23T17:40:38;5.32;;;2.85;;
21927;SDS011;11128;51.096;17.190;2023-03-23T17:45:39;7.18;;;3.13;;
21927;SDS011;11128;51.096;17.190;2023-03-23T17:50:41;4.75;;;2.90;;
21927;SDS011;11128;51.096;17.190;2023-03-23T17:55:46;5.13;;;2.85;;
21927;SDS011;11128;51.096;17.190;2023-03-23T18:00:47;6.72;;;3.75;;
21927;SDS011;11128;51.096;17.190;2023-03-23T18:16:31;10.47;;;4.70;;
21927;SDS011;11128;51.096;17.190;2023-03-23T18:21:33;8.77;;;3.85;;
21927;SDS011;11128;51.096;17.190;2023-03-23T18:26:35;6.18;;;3.63;;
21927;SDS011;11128;51.096;17.190;2023-03-23T18:31:37;7.72;;;4.53;;
21927;SDS011;11128;51.096;17.190;2023-03-23T18:36:39;12.10;;;5.35;;
21927;SDS011;11128;51.096;17.190;2023-03-23T18:41:40;11.60;;;5.60;;
21927;SDS011;11128;51.096;17.190;2023-03-23T18:46:42;12.45;;;6.18;;
21927;SDS011;11128;51.096;17.190;2023-03-23T18:51:43;12.05;;;6.95;;
21927;SDS011;11128;51.096;17.190;2023-03-23T18:56:44;13.98;;;7.45;;
21927;SDS011;11128;51.096;17.190;2023-03-23T19:01:46;19.33;;;8.75;;
21927;SDS011;11128;51.096;17.190;2023-03-23T19:06:49;19.60;;;8.40;;
21927;SDS011;11128;51.096;17.190;2023-03-23T19:11:50;17.60;;;9.10;;
21927;SDS011;11128;51.096;17.190;2023-03-23T19:16:51;16.80;;;8.57;;
21927;SDS011;11128;51.096;17.190;2023-03-23T19:21:53;18.58;;;8.35;;
21927;SDS011;11128;51.096;17.190;2023-03-23T19:26:56;13.68;;;7.88;;
21927;SDS011;11128;51.096;17.190;2023-03-23T19:31:57;15.10;;;7.70;;
21927;SDS011;11128;51.096;17.190;2023-03-23T19:36:59;13.80;;;7.97;;
21927;SDS011;11128;51.096;17.190;2023-03-23T19:42:00;12.82;;;7.65;;
21927;SDS011;11128;51.096;17.190;2023-03-23T19:47:01;16.02;;;8.63;;
21927;SDS011;11128;51.096;17.190;2023-03-23T19:52:03;14.25;;;7.75;;
21927;SDS011;11128;51.096;17.190;2023-03-23T19:57:05;16.42;;;7.60;;
21927;SDS011;11128;51.096;17.190;2023-03-23T20:02:10;13.48;;;7.28;;
21927;SDS011;11128;51.096;17.190;2023-03-23T20:07:12;12.50;;;7.22;;
21927;SDS011;11128;51.096;17.190;2023-03-23T20:12:13;16.08;;;6.72;;
21927;SDS011;11128;51.096;17.190;2023-03-23T20:17:15;9.32;;;5.95;;
21927;SDS011;11128;51.096;17.190;2023-03-23T20:22:16;10.60;;;6.20;;
21927;SDS011;11128;51.096;17.190;2023-03-23T20:27:17;10.80;;;6.53;;
21927;SDS011;11128;51.096;17.190;2023-03-23T20:32:19;13.60;;;7.45;;
21927;SDS011;11128;51.096;17.190;2023-03-23T20:37:21;11.82;;;6.95;;
21927;SDS011;11128;51.096;17.190;2023-03-23T20:42:24;15.63;;;8.13;;
21927;SDS011;11128;51.096;17.190;2023-03-23T20:47:25;13.25;;;7.32;;
21927;SDS011;11128;51.096;17.190;2023-03-23T20:52:27;12.57;;;7.53;;
21927;SDS011;11128;51.096;17.190;2023-03-23T20:57:29;15.95;;;8.30;;
21927;SDS011;11128;51.096;17.190;2023-03-23T21:02:30;14.20;;;7.75;;
21927;SDS011;11128;51.096;17.190;2023-03-23T21:07:34;13.90;;;6.95;;
21927;SDS011;11128;51.096;17.190;2023-03-23T21:12:36;13.82;;;6.72;;
21927;SDS011;11128;51.096;17.190;2023-03-23T21:17:37;14.27;;;7.05;;
21927;SDS011;11128;51.096;17.190;2023-03-23T21:22:40;12.00;;;6.47;;
21927;SDS011;11128;51.096;17.190;2023-03-23T21:27:41;13.25;;;7.20;;
21927;SDS011;11128;51.096;17.190;2023-03-23T21:32:43;11.75;;;6.75;;
21927;SDS011;11128;51.096;17.190;2023-03-23T21:37:45;15.18;;;7.32;;
21927;SDS011;11128;51.096;17.190;2023-03-23T21:42:53;15.32;;;7.22;;
21927;SDS011;11128;51.096;17.190;2023-03-23T21:47:54;14.98;;;7.55;;
21927;SDS011;11128;51.096;17.190;2023-03-23T21:52:56;12.40;;;7.32;;
21927;SDS011;11128;51.096;17.190;2023-03-23T21:57:58;14.85;;;6.88;;
21927;SDS011;11128;51.096;17.190;2023-03-23T22:02:59;17.02;;;8.18;;
21927;SDS011;11128;51.096;17.190;2023-03-23T22:08:02;17.17;;;8.27;;
21927;SDS011;11128;51.096;17.190;2023-03-23T22:13:04;15.38;;;7.75;;
21927;SDS011;11128;51.096;17.190;2023-03-23T22:18:06;11.63;;;6.55;;
21927;SDS011;11128;51.096;17.190;2023-03-23T22:23:08;10.40;;;6.15;;
21927;SDS011;11128;51.096;17.190;2023-03-23T22:28:09;16.38;;;6.85;;
21927;SDS011;11128;51.096;17.190;2023-03-23T22:33:11;12.25;;;6.10;;
21927;SDS011;11128;51.096;17.190;2023-03-23T22:38:13;10.10;;;5.65;;
21927;SDS011;11128;51.096;17.190;2023-03-23T22:43:15;13.30;;;5.80;;
21927;SDS011;11128;51.096;17.190;2023-03-23T22:48:17;11.35;;;6.10;;
21927;SDS011;11128;51.096;17.190;2023-03-23T22:58:28;13.02;;;6.28;;
21927;SDS011;11128;51.096;17.190;2023-03-23T23:03:30;12.85;;;5.95;;
21927;SDS011;11128;51.096;17.190;2023-03-23T23:08:32;12.57;;;5.97;;
21927;SDS011;11128;51.096;17.190;2023-03-23T23:13:33;9.18;;;5.35;;
21927;SDS011;11128;51.096;17.190;2023-03-23T23:18:35;13.18;;;6.28;;
21927;SDS011;11128;51.096;17.190;2023-03-23T23:23:37;9.68;;;5.43;;
21927;SDS011;11128;51.096;17.190;2023-03-23T23:28:39;8.38;;;4.68;;
21927;SDS011;11128;51.096;17.190;2023-03-23T23:33:41;14.43;;;5.20;;
21927;SDS011;11128;51.096;17.190;2023-03-23T23:38:42;9.82;;;5.22;;
21927;SDS011;11128;51.096;17.190;2023-03-23T23:43:44;10.40;;;5.10;;
21927;SDS011;11128;51.096;17.190;2023-03-23T23:48:45;10.07;;;4.95;;
21927;SDS011;11128;51.096;17.190;2023-03-23T23:53:47;7.75;;;4.28;;
21927;SDS011;11128;51.096;17.190;2023-03-23T23:58:52;6.38;;;2.92;;
